Time;durP1;ratioP1;P1;durP2;ratioP2;P2;SDS_P1;SDS_P2;PMS_P1;PMS_P2;Temp;Humidity;BMP_temperature;BMP_pressure;BME280_temperature;BME280_humidity;BME280_pressure;Samples;Min_cycle;Max_cycle;Signal;HPM_P1;HPM_P2
2022/05/25 00:01:11;;;;;;;8.95;5.28;;;11.20;99.90;;;;;;5067525;28;20060;-66
2022/05/25 00:03:37;;;;;;;7.78;5.05;;;11.30;99.90;;;;;;5057078;28;20072;-66
2022/05/25 00:06:06;;;;;;;8.38;5.45;;;11.30;99.90;;;;;;5055934;28;20037;-66
2022/05/25 00:08:32;;;;;;;7.65;5.38;;;11.20;99.90;;;;;;5068529;28;20381;-66
2022/05/25 00:10:57;;;;;;;8.10;5.20;;;11.20;99.90;;;;;;5068621;28;20546;-66
2022/05/25 00:13:23;;;;;;;9.55;5.95;;;11.10;99.90;;;;;;5067041;28;20123;-66
2022/05/25 00:15:49;;;;;;;9.90;6.00;;;11.10;99.90;;;;;;5066973;28;20048;-66
2022/05/25 00:18:15;;;;;;;7.40;5.47;;;11.10;99.90;;;;;;5065305;28;20048;-66
2022/05/25 00:20:41;;;;;;;7.75;5.68;;;11.10;99.90;;;;;;5068539;28;20044;-65
2022/05/25 00:23:06;;;;;;;8.48;5.97;;;11.20;99.90;;;;;;5065634;28;20086;-65
2022/05/25 00:25:35;;;;;;;8.43;5.65;;;11.10;99.90;;;;;;5066958;28;20064;-66
2022/05/25 00:28:04;;;;;;;8.68;5.82;;;11.10;99.90;;;;;;5067254;28;20171;-65
2022/05/25 00:30:29;;;;;;;7.95;5.82;;;11.10;99.90;;;;;;5050868;28;20052;-65
2022/05/25 00:32:55;;;;;;;9.05;5.75;;;11.10;99.90;;;;;;5063902;28;20120;-66
2022/05/25 00:35:23;;;;;;;8.02;5.85;;;11.10;99.90;;;;;;5067413;28;20105;-66
2022/05/25 00:37:49;;;;;;;8.70;6.28;;;11.20;99.90;;;;;;5069948;28;20126;-65
2022/05/25 00:40:37;;;;;;;8.57;6.20;;;11.10;99.90;;;;;;5069894;28;20106;-65
2022/05/25 00:43:03;;;;;;;8.32;6.70;;;11.20;99.90;;;;;;5071189;28;20041;-65
2022/05/25 00:45:33;;;;;;;11.95;6.70;;;11.10;99.90;;;;;;5070826;28;20093;-66
2022/05/25 00:48:00;;;;;;;9.70;7.05;;;11.10;99.90;;;;;;5069399;28;20036;-65
2022/05/25 00:50:25;;;;;;;10.93;7.35;;;11.10;99.90;;;;;;5071095;28;20405;-65
2022/05/25 00:52:52;;;;;;;9.32;7.05;;;11.10;99.90;;;;;;5065909;28;20135;-65
2022/05/25 00:55:28;;;;;;;10.57;7.03;;;11.10;99.90;;;;;;5052444;28;20045;-65
2022/05/25 00:57:57;;;;;;;9.02;6.75;;;11.00;99.90;;;;;;5069423;28;20059;-66
2022/05/25 01:00:26;;;;;;;9.98;6.97;;;11.00;99.90;;;;;;5069946;28;20124;-66
2022/05/25 01:03:02;;;;;;;10.43;7.00;;;11.00;99.90;;;;;;5068803;28;20146;-66
2022/05/25 01:05:56;;;;;;;9.50;7.00;;;11.00;99.90;;;;;;5068608;28;20396;-65
2022/05/25 01:08:52;;;;;;;10.20;7.10;;;10.90;99.90;;;;;;5072303;28;20048;-66
2022/05/25 01:11:32;;;;;;;12.57;7.00;;;10.90;99.90;;;;;;5069777;28;20393;-66
2022/05/25 01:14:52;;;;;;;8.48;6.82;;;10.80;99.90;;;;;;5071695;28;20044;-66
2022/05/25 01:17:21;;;;;;;10.98;7.22;;;10.80;99.90;;;;;;5029801;28;20056;-66
2022/05/25 01:20:13;;;;;;;10.13;7.32;;;10.80;99.90;;;;;;5057512;28;20137;-66
2022/05/25 01:23:02;;;;;;;9.75;7.43;;;10.70;99.90;;;;;;5070763;28;20518;-66
2022/05/25 01:25:52;;;;;;;10.60;8.05;;;10.70;99.90;;;;;;5072695;28;20055;-66
2022/05/25 01:28:50;;;;;;;11.40;8.43;;;10.70;99.90;;;;;;5069636;28;20537;-66
2022/05/25 01:31:23;;;;;;;10.98;8.40;;;10.70;99.90;;;;;;5069223;28;20509;-67
2022/05/25 01:33:55;;;;;;;10.48;7.82;;;10.70;99.90;;;;;;5068591;28;20405;-66
2022/05/25 01:36:41;;;;;;;11.18;8.35;;;10.70;99.90;;;;;;5069765;28;20049;-66
2022/05/25 01:39:15;;;;;;;10.40;8.02;;;10.70;99.90;;;;;;5067988;28;20056;-65
2022/05/25 01:42:07;;;;;;;10.70;8.23;;;10.60;99.90;;;;;;5046488;28;20084;-65
2022/05/25 01:44:48;;;;;;;12.20;8.50;;;10.60;99.90;;;;;;5055239;28;20106;-66
2022/05/25 01:47:14;;;;;;;12.73;9.02;;;10.60;99.90;;;;;;5057622;28;20044;-66
2022/05/25 01:50:01;;;;;;;13.73;8.63;;;10.50;99.90;;;;;;5068482;28;20048;-66
2022/05/25 01:52:32;;;;;;;14.98;9.20;;;10.50;99.90;;;;;;5070184;28;20036;-66
2022/05/25 01:55:07;;;;;;;11.75;9.45;;;10.50;99.90;;;;;;5068242;28;20090;-66
2022/05/25 01:57:36;;;;;;;12.52;8.88;;;10.40;99.90;;;;;;5068746;28;20048;-65
2022/05/25 02:00:04;;;;;;;12.32;9.60;;;10.40;99.90;;;;;;5069508;28;20055;-65
2022/05/25 02:05:17;;;;;;;13.30;9.93;;;10.30;99.90;;;;;;5068539;28;20053;-67
2022/05/25 02:07:45;;;;;;;13.57;10.00;;;10.30;99.90;;;;;;5069680;28;20045;-65
2022/05/25 02:10:17;;;;;;;13.40;10.75;;;10.40;99.90;;;;;;5069780;28;20040;-66
2022/05/25 02:13:04;;;;;;;13.13;10.52;;;10.30;99.90;;;;;;5068697;28;20048;-66
2022/05/25 02:15:36;;;;;;;14.68;10.77;;;10.30;99.90;;;;;;5068399;28;20044;-66
2022/05/25 02:18:19;;;;;;;14.88;11.77;;;10.30;99.90;;;;;;5069577;28;20811;-65
2022/05/25 02:20:51;;;;;;;13.93;11.05;;;10.30;99.90;;;;;;5069762;28;20483;-66
2022/05/25 02:23:20;;;;;;;13.88;11.95;;;10.30;99.90;;;;;;5065731;28;20048;-66
2022/05/25 02:25:51;;;;;;;20.45;11.77;;;10.90;99.90;;;;;;5070147;28;20127;-66
2022/05/25 02:28:30;;;;;;;17.30;12.60;;;11.60;99.90;;;;;;5069176;28;20056;-66
2022/05/25 02:30:58;;;;;;;16.45;11.57;;;11.20;99.90;;;;;;5068404;28;20417;-66
2022/05/25 02:33:34;;;;;;;18.75;12.25;;;10.40;99.90;;;;;;5068640;28;20040;-66
2022/05/25 02:36:01;;;;;;;15.40;11.20;;;11.10;99.90;;;;;;5051380;28;20477;-66
2022/05/25 02:38:28;;;;;;;16.95;11.90;;;10.40;99.90;;;;;;5048486;28;20112;-66
2022/05/25 02:41:04;;;;;;;16.50;12.30;;;10.40;99.90;;;;;;5060563;28;20049;-67
2022/05/25 02:43:30;;;;;;;15.90;12.48;;;10.40;99.90;;;;;;5065015;28;20342;-66
2022/05/25 02:45:57;;;;;;;17.00;12.25;;;10.30;99.90;;;;;;5069404;28;20037;-66
2022/05/25 02:48:22;;;;;;;15.02;11.93;;;10.40;99.90;;;;;;5068737;28;20040;-66
2022/05/25 02:50:48;;;;;;;19.63;12.13;;;10.40;99.90;;;;;;5069912;28;20374;-65
2022/05/25 02:53:13;;;;;;;16.30;12.80;;;10.40;99.90;;;;;;5068440;28;20045;-65
2022/05/25 02:55:39;;;;;;;17.33;12.50;;;10.40;99.90;;;;;;5068544;28;20051;-66
2022/05/25 02:58:05;;;;;;;18.33;12.05;;;10.40;99.90;;;;;;5064677;28;20056;-66
2022/05/25 03:00:30;;;;;;;17.00;12.48;;;10.40;99.90;;;;;;5068769;28;20542;-65
2022/05/25 03:02:56;;;;;;;17.05;12.38;;;10.30;99.90;;;;;;5069528;28;20093;-66
2022/05/25 03:05:22;;;;;;;15.60;12.48;;;10.30;99.90;;;;;;5067604;28;20033;-65
2022/05/25 03:07:48;;;;;;;18.00;13.60;;;10.20;99.90;;;;;;5068250;28;20109;-65
2022/05/25 03:10:13;;;;;;;15.70;11.80;;;10.20;99.90;;;;;;5068213;28;20451;-66
2022/05/25 03:12:39;;;;;;;19.20;12.15;;;10.20;99.90;;;;;;5065170;28;20394;-66
2022/05/25 03:15:05;;;;;;;17.08;13.93;;;10.50;99.90;;;;;;5068365;28;20139;-67
2022/05/25 03:17:31;;;;;;;23.42;13.27;;;10.20;99.90;;;;;;5067687;28;20496;-66
2022/05/25 03:19:57;;;;;;;19.45;12.90;;;10.10;99.90;;;;;;5067807;28;20040;-66
2022/05/25 03:22:23;;;;;;;21.35;12.98;;;10.00;99.90;;;;;;5048419;28;20541;-66
2022/05/25 03:24:49;;;;;;;19.08;13.68;;;10.10;99.90;;;;;;5047641;28;20391;-66
2022/05/25 03:27:15;;;;;;;17.80;13.43;;;10.00;99.90;;;;;;5046417;28;20052;-65
2022/05/25 03:29:42;;;;;;;17.70;13.00;;;10.00;99.90;;;;;;5047373;28;20049;-66
2022/05/25 03:32:08;;;;;;;15.35;12.93;;;10.00;99.90;;;;;;5058639;28;20048;-66
2022/05/25 03:34:34;;;;;;;17.00;13.68;;;10.00;99.90;;;;;;5067245;28;20055;-66
2022/05/25 03:37:00;;;;;;;17.65;12.68;;;10.00;99.90;;;;;;5061114;28;20436;-66
2022/05/25 03:39:26;;;;;;;19.58;13.68;;;10.70;99.90;;;;;;5050506;28;20047;-66
2022/05/25 03:41:59;;;;;;;16.70;13.13;;;10.00;99.90;;;;;;5067679;28;20045;-66
2022/05/25 03:44:24;;;;;;;15.93;13.57;;;10.00;99.90;;;;;;5065649;28;20121;-66
2022/05/25 03:46:51;;;;;;;16.63;12.48;;;10.00;99.90;;;;;;5067570;28;20555;-67
2022/05/25 03:49:17;;;;;;;18.15;13.35;;;10.00;99.90;;;;;;5067287;28;20110;-66
2022/05/25 03:51:43;;;;;;;19.23;13.32;;;10.00;99.90;;;;;;5068565;28;20033;-66
2022/05/25 03:54:09;;;;;;;17.83;12.85;;;10.80;99.90;;;;;;5066902;28;20055;-66
2022/05/25 03:56:35;;;;;;;17.83;12.93;;;10.00;99.90;;;;;;5066682;28;20109;-66
2022/05/25 03:59:01;;;;;;;20.13;13.43;;;10.00;99.90;;;;;;5068283;28;20060;-66
2022/05/25 04:01:27;;;;;;;18.38;13.77;;;10.10;99.90;;;;;;5066724;28;20048;-66
2022/05/25 04:03:53;;;;;;;19.35;11.57;;;10.10;99.90;;;;;;5067749;28;20037;-66
2022/05/25 04:06:19;;;;;;;19.83;14.70;;;10.80;99.90;;;;;;5067414;28;20123;-66
2022/05/25 04:08:44;;;;;;;17.85;13.65;;;10.00;99.90;;;;;;5066782;28;20127;-66
2022/05/25 04:11:11;;;;;;;18.77;13.23;;;9.90;99.90;;;;;;5066054;28;20481;-66
2022/05/25 04:13:37;;;;;;;15.70;12.73;;;10.90;99.90;;;;;;5070704;28;20722;-66
2022/05/25 04:16:02;;;;;;;19.20;14.23;;;10.00;99.90;;;;;;5071462;28;20044;-66
2022/05/25 04:18:28;;;;;;;20.27;13.20;;;10.00;99.90;;;;;;5052794;28;20076;-66
2022/05/25 04:20:54;;;;;;;18.13;12.52;;;10.10;99.90;;;;;;5072616;28;20040;-66
2022/05/25 04:23:20;;;;;;;18.73;13.05;;;10.10;99.90;;;;;;5070095;28;20048;-66
2022/05/25 04:25:46;;;;;;;19.10;12.88;;;10.20;99.90;;;;;;5071615;28;20453;-66
2022/05/25 04:28:12;;;;;;;18.08;12.38;;;10.10;99.90;;;;;;5069514;28;20460;-66
2022/05/25 04:30:38;;;;;;;17.33;13.55;;;10.20;99.90;;;;;;5069796;28;20151;-66
2022/05/25 04:33:04;;;;;;;16.88;13.23;;;10.20;99.90;;;;;;5070870;28;20434;-67
2022/05/25 04:35:29;;;;;;;18.13;12.82;;;10.20;99.90;;;;;;5070938;28;20044;-66
2022/05/25 04:37:56;;;;;;;20.83;13.80;;;10.20;99.90;;;;;;5070465;28;20056;-66
2022/05/25 04:40:25;;;;;;;18.75;13.00;;;10.20;99.90;;;;;;5071736;28;20041;-66
2022/05/25 04:42:52;;;;;;;18.77;12.50;;;10.20;99.90;;;;;;5069677;28;20083;-66
2022/05/25 04:45:19;;;;;;;17.77;12.73;;;10.20;99.90;;;;;;5070458;28;20068;-66
2022/05/25 04:47:45;;;;;;;16.80;12.05;;;10.40;99.90;;;;;;5070153;28;20052;-66
2022/05/25 04:50:12;;;;;;;16.45;12.68;;;10.40;99.90;;;;;;5070395;28;20067;-66
2022/05/25 04:52:38;;;;;;;18.40;12.57;;;10.40;99.90;;;;;;5069756;28;20119;-66
2022/05/25 04:55:05;;;;;;;18.30;13.48;;;10.40;99.90;;;;;;5070960;28;20079;-66
2022/05/25 04:57:31;;;;;;;18.65;13.20;;;10.50;99.90;;;;;;5070330;28;20079;-66
2022/05/25 05:00:00;;;;;;;18.92;12.77;;;10.50;99.90;;;;;;5070918;28;20075;-66
2022/05/25 05:02:27;;;;;;;16.20;12.77;;;10.50;99.90;;;;;;5069401;28;20169;-66
2022/05/25 05:04:53;;;;;;;17.80;12.88;;;10.50;99.90;;;;;;5069870;28;20044;-66
2022/05/25 05:07:28;;;;;;;17.88;12.65;;;10.50;99.90;;;;;;5070487;28;20051;-67
2022/05/25 05:09:54;;;;;;;17.60;11.50;;;10.50;99.90;;;;;;5069617;28;20370;-66
2022/05/25 05:12:19;;;;;;;19.38;13.00;;;10.60;99.90;;;;;;5067788;28;20112;-66
2022/05/25 05:14:45;;;;;;;18.30;11.65;;;10.60;99.90;;;;;;5068671;28;20049;-66
2022/05/25 05:17:10;;;;;;;17.90;12.35;;;10.60;99.90;;;;;;5068966;28;20024;-66
2022/05/25 05:19:36;;;;;;;18.75;12.45;;;10.70;99.90;;;;;;5069308;28;20052;-65
2022/05/25 05:22:02;;;;;;;15.57;11.63;;;10.80;99.90;;;;;;5071327;28;20039;-66
2022/05/25 05:24:29;;;;;;;16.92;12.05;;;10.80;99.90;;;;;;5070316;28;20045;-65
2022/05/25 05:26:55;;;;;;;16.17;12.25;;;10.80;99.90;;;;;;5068591;28;20052;-65
2022/05/25 05:29:23;;;;;;;15.75;11.82;;;10.90;99.90;;;;;;5068125;28;20052;-66
2022/05/25 05:31:49;;;;;;;15.93;11.68;;;11.00;99.90;;;;;;5069895;28;20401;-66
2022/05/25 05:34:14;;;;;;;15.50;11.88;;;11.00;99.90;;;;;;5067238;28;20044;-66
2022/05/25 05:36:47;;;;;;;17.40;11.38;;;11.20;99.90;;;;;;5070076;28;20037;-67
2022/05/25 05:39:15;;;;;;;20.40;12.02;;;11.30;99.90;;;;;;5067530;28;20041;-66
2022/05/25 05:41:46;;;;;;;16.33;11.23;;;11.30;99.90;;;;;;5070976;28;20068;-66
2022/05/25 05:44:15;;;;;;;16.45;12.00;;;11.40;99.90;;;;;;5069437;28;20142;-66
2022/05/25 05:46:42;;;;;;;15.32;11.98;;;11.50;99.90;;;;;;5068272;28;20839;-66
2022/05/25 05:49:12;;;;;;;15.93;11.57;;;11.40;99.90;;;;;;5067239;28;20044;-66
2022/05/25 05:51:39;;;;;;;17.80;11.10;;;11.50;99.90;;;;;;5070345;28;20045;-66
2022/05/25 05:54:05;;;;;;;14.93;10.77;;;11.50;99.90;;;;;;5053070;28;20150;-67
2022/05/25 05:56:32;;;;;;;15.90;11.82;;;11.70;99.90;;;;;;5056134;28;20041;-67
2022/05/25 05:58:59;;;;;;;17.58;11.80;;;11.70;99.90;;;;;;5047333;28;20052;-66
2022/05/25 06:01:25;;;;;;;14.07;10.35;;;11.80;99.90;;;;;;5048641;28;20569;-66
2022/05/25 06:03:50;;;;;;;15.82;11.77;;;11.90;99.90;;;;;;5057110;28;20119;-66
2022/05/25 06:06:16;;;;;;;15.98;11.10;;;12.10;99.90;;;;;;5067507;28;20144;-67
2022/05/25 06:08:46;;;;;;;19.02;10.43;;;12.60;99.90;;;;;;5067852;28;20080;-66
2022/05/25 06:11:13;;;;;;;14.35;10.48;;;12.00;99.90;;;;;;5068951;28;20044;-66
2022/05/25 06:13:39;;;;;;;14.50;10.35;;;12.10;99.90;;;;;;5067409;28;20044;-66
2022/05/25 06:21:34;;;;;;;16.50;9.82;;;12.20;99.90;;;;;;5065729;28;20040;-66
2022/05/25 06:24:00;;;;;;;14.50;10.13;;;12.30;99.90;;;;;;5068104;28;20047;-66
2022/05/25 06:26:30;;;;;;;15.52;9.30;;;12.40;99.90;;;;;;5068422;28;20111;-67
2022/05/25 06:28:56;;;;;;;14.18;9.23;;;13.80;99.90;;;;;;5065485;28;20054;-70
2022/05/25 06:31:22;;;;;;;12.32;9.00;;;12.60;99.90;;;;;;5067707;28;20047;-71
2022/05/25 06:33:48;;;;;;;14.07;8.77;;;12.70;99.90;;;;;;5065291;28;20041;-71
2022/05/25 06:36:22;;;;;;;12.95;8.68;;;12.70;99.90;;;;;;5067843;28;20334;-71
2022/05/25 06:38:49;;;;;;;13.43;8.57;;;12.70;99.90;;;;;;5048641;28;20052;-70
2022/05/25 06:41:15;;;;;;;12.38;8.15;;;12.80;99.90;;;;;;5067674;28;20041;-70
2022/05/25 06:43:41;;;;;;;13.85;7.85;;;12.90;99.90;;;;;;5065572;28;20052;-70
2022/05/25 06:46:09;;;;;;;13.05;8.55;;;13.00;99.90;;;;;;5070027;28;20086;-70
2022/05/25 06:48:35;;;;;;;10.73;6.93;;;13.20;99.90;;;;;;5063831;28;20409;-69
2022/05/25 06:51:11;;;;;;;12.27;7.30;;;13.20;99.90;;;;;;5065208;28;20048;-70
2022/05/25 06:53:37;;;;;;;10.27;6.88;;;13.30;99.90;;;;;;5066447;28;20166;-69
2022/05/25 06:56:03;;;;;;;15.43;6.72;;;13.40;99.90;;;;;;5069858;28;20112;-70
2022/05/25 06:58:29;;;;;;;10.60;6.80;;;13.40;99.90;;;;;;5066817;28;20486;-70
2022/05/25 07:00:54;;;;;;;13.35;6.85;;;13.60;99.90;;;;;;5067894;28;20044;-69
2022/05/25 07:03:21;;;;;;;12.57;7.10;;;13.60;99.90;;;;;;5057976;28;20039;-69
2022/05/25 07:05:47;;;;;;;14.90;6.60;;;14.40;99.90;;;;;;5066880;28;20111;-69
2022/05/25 07:08:12;;;;;;;11.82;6.55;;;13.80;99.90;;;;;;5065604;28;20493;-69
2022/05/25 07:10:39;;;;;;;10.90;6.50;;;13.90;99.90;;;;;;5068376;28;20044;-70
2022/05/25 07:13:05;;;;;;;10.00;5.82;;;13.90;99.90;;;;;;5071267;28;20048;-71
2022/05/25 07:15:30;;;;;;;13.18;6.18;;;14.00;99.90;;;;;;5067841;28;20056;-71
2022/05/25 07:17:56;;;;;;;11.82;6.13;;;14.10;99.90;;;;;;5066501;28;20191;-71
2022/05/25 07:20:21;;;;;;;9.93;5.68;;;14.10;99.90;;;;;;5065919;28;20048;-71
2022/05/25 07:22:47;;;;;;;8.95;6.03;;;14.10;99.90;;;;;;5048572;28;20079;-70
2022/05/25 07:25:13;;;;;;;8.80;5.63;;;14.20;99.90;;;;;;5043175;28;20091;-70
2022/05/25 07:27:39;;;;;;;11.93;6.47;;;14.30;99.90;;;;;;5045599;28;20413;-69
2022/05/25 07:30:06;;;;;;;12.50;6.53;;;14.40;99.90;;;;;;5046594;28;20060;-69
2022/05/25 07:32:31;;;;;;;10.27;6.70;;;14.40;99.90;;;;;;5047959;28;20477;-70
2022/05/25 07:35:04;;;;;;;10.75;6.00;;;14.40;99.90;;;;;;5048271;28;20080;-69
2022/05/25 07:37:33;;;;;;;8.40;6.07;;;14.50;99.90;;;;;;5050462;28;20101;-69
2022/05/25 07:40:15;;;;;;;16.88;6.57;;;15.60;99.90;;;;;;5069401;28;20044;-69
2022/05/25 07:42:48;;;;;;;10.45;6.22;;;14.70;99.90;;;;;;5065547;28;20127;-67
2022/05/25 07:45:13;;;;;;;8.48;5.90;;;14.80;99.90;;;;;;5064138;28;20457;-69
2022/05/25 07:47:39;;;;;;;8.27;6.50;;;14.90;99.90;;;;;;5068080;28;20120;-70
2022/05/25 07:50:06;;;;;;;16.38;5.70;;;15.00;99.90;;;;;;5067508;28;20058;-71
2022/05/25 07:52:38;;;;;;;8.38;5.30;;;15.10;99.90;;;;;;5048866;28;20051;-69
2022/05/25 07:55:05;;;;;;;7.57;5.20;;;15.20;99.90;;;;;;5068689;28;20048;-69
2022/05/25 07:57:31;;;;;;;7.53;5.38;;;15.40;99.90;;;;;;5067487;28;20037;-69
2022/05/25 07:59:57;;;;;;;8.30;5.22;;;15.50;99.90;;;;;;5036076;28;20111;-69
2022/05/25 08:08:06;;;;;;;7.47;4.47;;;15.80;99.90;;;;;;5047320;28;20091;-70
2022/05/25 08:10:32;;;;;;;8.00;4.50;;;15.90;99.90;;;;;;5047359;28;20490;-69
2022/05/25 08:12:59;;;;;;;7.93;4.72;;;16.50;99.90;;;;;;5044702;28;20132;-70
2022/05/25 08:15:26;;;;;;;6.90;4.15;;;16.10;99.90;;;;;;5045828;28;20518;-69
2022/05/25 08:17:53;;;;;;;6.43;4.03;;;16.20;99.90;;;;;;5047665;28;20079;-69
2022/05/25 08:20:20;;;;;;;7.55;4.80;;;16.40;99.90;;;;;;5045990;28;20410;-69
2022/05/25 08:22:47;;;;;;;8.10;4.75;;;16.50;99.90;;;;;;5047657;28;20102;-69
2022/05/25 08:25:15;;;;;;;9.10;4.90;;;16.60;99.90;;;;;;5046315;28;20393;-68
2022/05/25 08:27:41;;;;;;;8.02;5.10;;;16.80;99.90;;;;;;5046178;28;20045;-69
2022/05/25 08:30:14;;;;;;;6.65;4.30;;;16.90;99.90;;;;;;5045014;28;20441;-68
2022/05/25 08:32:40;;;;;;;6.93;4.10;;;17.00;99.90;;;;;;5047531;28;20090;-70
2022/05/25 08:35:06;;;;;;;5.82;4.32;;;17.20;99.90;;;;;;5046424;28;20454;-69
2022/05/25 08:37:32;;;;;;;8.57;4.45;;;17.40;99.90;;;;;;5054973;28;20102;-67
2022/05/25 08:39:58;;;;;;;7.15;4.10;;;17.60;99.90;;;;;;5066127;28;20057;-68
2022/05/25 08:42:29;;;;;;;7.65;4.00;;;18.20;99.90;;;;;;5063493;28;20048;-69
2022/05/25 08:44:56;;;;;;;6.90;3.65;;;17.80;99.90;;;;;;5066734;28;20413;-70
2022/05/25 08:47:22;;;;;;;7.70;3.70;;;18.00;99.90;;;;;;5066237;28;20044;-69
2022/05/25 08:49:51;;;;;;;7.40;4.28;;;18.00;99.90;;;;;;5050093;28;20453;-69
2022/05/25 08:52:24;;;;;;;6.53;3.15;;;18.20;99.90;;;;;;5046595;28;20478;-67
2022/05/25 08:54:51;;;;;;;5.13;2.92;;;18.30;99.90;;;;;;5046560;28;20557;-68
2022/05/25 08:57:33;;;;;;;5.78;3.40;;;18.40;99.90;;;;;;5046696;28;20126;-71
2022/05/25 09:00:08;;;;;;;8.02;3.42;;;18.60;99.90;;;;;;5049739;28;20080;-71
2022/05/25 09:02:42;;;;;;;5.55;3.42;;;18.70;99.90;;;;;;5051048;28;20057;-71
2022/05/25 09:05:40;;;;;;;5.97;3.60;;;18.80;99.90;;;;;;5050398;28;20489;-71
2022/05/25 09:08:13;;;;;;;4.90;3.40;;;18.80;99.90;;;;;;5049564;28;20060;-70
2022/05/25 09:10:47;;;;;;;7.18;4.00;;;18.70;99.90;;;;;;5065074;28;20044;-70
2022/05/25 09:13:24;;;;;;;6.70;3.58;;;18.80;99.90;;;;;;5049167;28;20048;-70
2022/05/25 09:18:43;;;;;;;5.60;3.30;;;19.00;99.90;;;;;;5052226;28;20049;-71
2022/05/25 09:21:09;;;;;;;6.22;2.95;;;18.90;99.90;;;;;;5049018;28;20064;-72
2022/05/25 09:23:36;;;;;;;5.97;2.95;;;19.00;99.90;;;;;;5051633;28;20074;-71
2022/05/25 09:26:02;;;;;;;5.20;3.30;;;19.20;99.90;;;;;;5065058;28;20511;-72
2022/05/25 09:28:38;;;;;;;4.72;3.10;;;19.30;99.90;;;;;;5048299;28;20041;-72
2022/05/25 09:31:06;;;;;;;4.97;3.00;;;19.40;99.90;;;;;;5049101;28;20048;-72
2022/05/25 09:33:46;;;;;;;5.20;2.78;;;19.50;99.90;;;;;;5050885;28;20111;-72
2022/05/25 09:36:22;;;;;;;6.88;2.95;;;20.40;99.90;;;;;;5049729;28;20484;-72
2022/05/25 09:39:11;;;;;;;6.90;2.65;;;19.60;99.90;;;;;;5030933;28;20041;-72
2022/05/25 09:41:42;;;;;;;5.40;2.72;;;19.50;99.90;;;;;;5049402;28;20052;-71
2022/05/25 09:44:11;;;;;;;4.82;2.55;;;19.40;99.90;;;;;;5046801;28;20091;-71
2022/05/25 09:46:45;;;;;;;4.53;2.65;;;19.00;99.90;;;;;;5050112;28;20087;-70
2022/05/25 09:49:25;;;;;;;5.05;2.80;;;18.70;99.90;;;;;;5049169;28;20498;-71
2022/05/25 09:51:53;;;;;;;5.20;3.10;;;18.70;99.90;;;;;;5049686;28;20115;-71
2022/05/25 09:54:46;;;;;;;4.35;2.83;;;18.90;99.90;;;;;;5048510;28;20051;-71
2022/05/25 09:57:26;;;;;;;3.70;2.65;;;19.00;99.90;;;;;;5058878;28;20473;-72
2022/05/25 10:00:00;;;;;;;7.95;3.30;;;19.50;99.90;;;;;;5062947;28;20133;-71
2022/05/25 10:02:48;;;;;;;5.40;3.17;;;19.10;99.90;;;;;;5066737;28;20052;-72
2022/05/25 10:05:24;;;;;;;5.57;3.17;;;19.10;99.90;;;;;;5065860;28;20051;-72
2022/05/25 10:08:00;;;;;;;5.22;3.40;;;19.10;99.90;;;;;;5067299;28;20063;-71
2022/05/25 10:10:32;;;;;;;4.90;3.22;;;19.20;99.90;;;;;;5066377;28;20056;-72
2022/05/25 10:13:01;;;;;;;6.20;2.85;;;19.10;99.90;;;;;;5063829;28;20047;-70
2022/05/25 10:15:32;;;;;;;6.93;3.40;;;19.00;99.90;;;;;;5069221;28;20194;-70
2022/05/25 10:17:59;;;;;;;6.07;3.03;;;18.90;99.90;;;;;;5070450;28;20064;-71
2022/05/25 10:20:52;;;;;;;4.93;2.95;;;18.80;99.90;;;;;;5070646;28;20133;-71
2022/05/25 10:23:25;;;;;;;6.40;3.20;;;19.10;99.90;;;;;;5067639;28;20049;-70
2022/05/25 10:25:55;;;;;;;7.20;3.30;;;18.40;99.90;;;;;;5061208;28;20389;-69
2022/05/25 10:28:29;;;;;;;6.88;3.58;;;18.30;99.90;;;;;;5057682;28;20429;-70
2022/05/25 10:36:52;;;;;;;8.43;3.65;;;17.80;99.90;;;;;;5067436;28;20182;-69
2022/05/25 10:39:30;;;;;;;7.63;3.90;;;17.60;99.90;;;;;;5067076;28;20056;-67
2022/05/25 10:42:45;;;;;;;9.05;3.58;;;17.60;99.90;;;;;;5065941;28;20048;-70
2022/05/25 10:45:18;;;;;;;8.30;4.05;;;17.60;99.90;;;;;;5048294;28;20343;-69
2022/05/25 10:47:54;;;;;;;7.25;3.75;;;17.60;99.90;;;;;;5063418;28;20120;-68
2022/05/25 10:50:35;;;;;;;5.75;3.30;;;17.70;99.90;;;;;;5060678;28;20048;-69
2022/05/25 10:53:28;;;;;;;7.82;3.67;;;17.60;99.90;;;;;;5062722;28;20217;-69
2022/05/25 10:56:22;;;;;;;5.72;3.50;;;17.60;99.90;;;;;;5066884;28;20084;-70
2022/05/25 10:59:05;;;;;;;11.00;4.05;;;17.50;99.90;;;;;;5081966;28;20052;-70
2022/05/25 11:02:04;;;;;;;6.32;3.67;;;17.40;99.90;;;;;;5066333;28;20078;-69
2022/05/25 11:04:41;;;;;;;5.70;3.75;;;17.30;99.90;;;;;;5062929;28;20469;-78
2022/05/25 11:07:12;;;;;;;7.13;4.20;;;17.20;99.90;;;;;;5064600;28;20477;-76
2022/05/25 11:10:12;;;;;;;6.10;4.30;;;17.00;99.90;;;;;;5066314;28;20028;-75
2022/05/25 11:12:50;;;;;;;8.82;4.82;;;16.80;99.90;;;;;;5062808;28;20052;-76
2022/05/25 11:15:33;;;;;;;8.45;5.35;;;16.70;99.90;;;;;;5060002;28;20044;-76
2022/05/25 11:18:29;;;;;;;11.80;5.38;;;16.60;99.90;;;;;;5063210;28;20040;-75
2022/05/25 11:21:04;;;;;;;8.98;5.07;;;16.50;99.90;;;;;;5058216;28;20133;-76
2022/05/25 11:24:07;;;;;;;9.13;4.60;;;16.30;99.90;;;;;;5060721;28;20125;-74
2022/05/25 11:26:44;;;;;;;5.97;3.92;;;16.40;99.90;;;;;;5061534;28;20483;-74
2022/05/25 11:29:19;;;;;;;6.97;4.05;;;16.70;99.90;;;;;;5057639;28;20472;-75
2022/05/25 11:31:50;;;;;;;7.63;3.50;;;17.10;99.90;;;;;;5061187;28;20090;-75
2022/05/25 11:34:36;;;;;;;7.22;3.63;;;17.60;99.90;;;;;;5062972;28;20044;-75
2022/05/25 11:37:17;;;;;;;7.95;3.30;;;17.90;99.90;;;;;;5062317;28;20134;-75
2022/05/25 11:40:12;;;;;;;8.63;3.50;;;17.90;99.90;;;;;;5060407;28;20072;-76
2022/05/25 11:43:01;;;;;;;6.53;3.50;;;18.10;99.90;;;;;;5043326;28;20106;-78
2022/05/25 11:45:50;;;;;;;7.60;3.88;;;18.40;99.90;;;;;;5043277;28;20084;-77
2022/05/25 11:48:30;;;;;;;5.65;4.07;;;19.10;99.90;;;;;;5043415;28;20056;-77
2022/05/25 11:51:13;;;;;;;9.00;4.20;;;21.00;99.90;;;;;;5060955;28;20148;-77
2022/05/25 11:54:16;;;;;;;5.82;4.43;;;22.20;99.90;;;;;;5064473;28;20055;-77
2022/05/25 11:57:15;;;;;;;8.60;4.72;;;22.30;99.90;;;;;;5064721;28;20049;-77
2022/05/25 11:59:53;;;;;;;9.57;5.38;;;22.00;99.90;;;;;;5051441;28;20057;-77
2022/05/25 12:02:53;;;;;;;7.82;4.78;;;22.10;99.90;;;;;;5050913;28;20045;-77
2022/05/25 12:05:30;;;;;;;8.40;4.65;;;21.70;99.90;;;;;;5068608;28;20047;-78
2022/05/25 12:08:38;;;;;;;6.50;4.68;;;21.10;99.90;;;;;;5066945;28;20040;-77
2022/05/25 12:11:14;;;;;;;7.07;4.43;;;20.10;99.90;;;;;;5066379;28;20101;-74
2022/05/25 12:14:13;;;;;;;6.40;4.00;;;20.20;99.90;;;;;;5060774;28;20117;-68
2022/05/25 12:16:44;;;;;;;5.45;3.00;;;20.10;99.90;;;;;;5060296;28;20047;-69
2022/05/25 12:19:16;;;;;;;4.70;2.15;;;20.00;99.90;;;;;;5077183;28;20044;-69
2022/05/25 12:21:48;;;;;;;4.97;2.00;;;20.00;99.90;;;;;;5068531;28;20047;-69
2022/05/25 12:24:19;;;;;;;3.78;2.08;;;20.00;99.90;;;;;;5066856;28;20044;-69
2022/05/25 12:26:45;;;;;;;9.25;2.40;;;20.40;99.90;;;;;;5066557;28;20519;-69
2022/05/25 12:29:21;;;;;;;21.23;3.05;;;20.30;99.90;;;;;;5064778;28;20056;-69
2022/05/25 12:31:49;;;;;;;;;;;21.20;99.90;;;;;;5067273;28;20127;-70
2022/05/25 12:34:20;;;;;;;6.45;2.65;;;20.70;99.90;;;;;;5068434;28;20014;-69
2022/05/25 12:36:46;;;;;;;7.57;3.00;;;20.80;99.90;;;;;;5071053;28;20041;-69
2022/05/25 12:39:11;;;;;;;6.22;2.90;;;20.70;99.90;;;;;;5068467;28;20109;-70
2022/05/25 12:41:39;;;;;;;6.18;2.90;;;21.00;99.90;;;;;;5070327;28;20029;-69
2022/05/25 12:49:46;;;;;;;7.30;1.75;;;19.70;99.90;;;;;;5070331;28;20060;-70
2022/05/25 12:52:27;;;;;;;4.47;1.60;;;19.60;99.90;;;;;;5070240;28;20125;-70
2022/05/25 12:55:27;;;;;;;2.65;1.13;;;19.70;99.90;;;;;;5070051;28;20067;-69
2022/05/25 12:57:55;;;;;;;4.65;1.25;;;19.80;99.40;;;;;;5068038;28;20367;-69
2022/05/25 13:00:34;;;;;;;4.88;1.20;;;20.00;97.90;;;;;;5054362;28;20537;-69
2022/05/25 13:03:21;;;;;;;5.20;1.23;;;20.50;97.90;;;;;;5065262;28;20382;-70
2022/05/25 13:05:57;;;;;;;7.78;1.40;;;20.20;97.20;;;;;;5048803;28;20601;-69
2022/05/25 13:08:52;;;;;;;8.60;1.55;;;20.30;97.00;;;;;;5047769;28;20053;-69
2022/05/25 13:11:37;;;;;;;4.75;1.23;;;20.20;96.60;;;;;;5050570;28;20049;-69
2022/05/25 13:14:18;;;;;;;7.20;1.35;;;21.00;97.00;;;;;;5055578;28;20128;-69
2022/05/25 13:16:48;;;;;;;4.72;1.60;;;20.00;96.80;;;;;;5068905;28;20055;-68
2022/05/25 13:19:19;;;;;;;3.03;1.20;;;20.30;97.30;;;;;;5071277;28;20131;-69
2022/05/25 13:22:17;;;;;;;4.47;1.30;;;20.30;96.70;;;;;;5068466;28;20552;-69
2022/05/25 13:25:06;;;;;;;4.55;1.30;;;20.30;96.00;;;;;;5068919;28;20040;-69
2022/05/25 13:27:46;;;;;;;2.92;1.20;;;20.20;96.10;;;;;;5066658;28;20139;-69
2022/05/25 13:30:38;;;;;;;4.82;1.13;;;20.00;96.50;;;;;;5068412;28;20040;-70
2022/05/25 13:33:13;;;;;;;5.05;1.40;;;19.90;96.70;;;;;;5072179;28;20512;-66